createdAt,value
2022-11-29T00:00:13.049Z,61.15
2022-11-29T00:02:42.885Z,59.88
2022-11-29T00:05:11.554Z,61.30
2022-11-29T00:07:41.139Z,59.13
2022-11-29T00:10:13.510Z,63.38
2022-11-29T00:12:42.270Z,60.50
2022-11-29T00:15:11.253Z,59.60
2022-11-29T00:17:40.044Z,59.90
2022-11-29T00:20:12.655Z,56.38
2022-11-29T00:22:41.887Z,58.65
2022-11-29T00:25:13.416Z,59.45
2022-11-29T00:27:42.628Z,55.38
2022-11-29T00:30:13.235Z,55.70
2022-11-29T00:32:43.057Z,55.30
2022-11-29T00:35:11.835Z,57.03
2022-11-29T00:37:40.291Z,55.17
2022-11-29T00:40:13.328Z,55.00
2022-11-29T00:42:47.141Z,53.95
2022-11-29T00:45:16.711Z,55.47
2022-11-29T00:47:47.274Z,54.78
2022-11-29T00:50:16.439Z,54.33
2022-11-29T00:52:47.029Z,53.95
2022-11-29T00:55:19.804Z,56.15
2022-11-29T00:57:48.705Z,54.13
2022-11-29T01:00:19.396Z,53.55
2022-11-29T01:02:48.094Z,52.20
2022-11-29T01:05:18.602Z,52.85
2022-11-29T01:07:49.065Z,50.38
2022-11-29T01:10:20.360Z,50.03
2022-11-29T01:12:50.122Z,51.58
2022-11-29T01:15:19.316Z,51.53
2022-11-29T01:17:49.167Z,52.45
2022-11-29T01:20:18.486Z,53.20
2022-11-29T01:22:47.506Z,52.15
2022-11-29T01:25:19.489Z,51.60
2022-11-29T01:27:49.099Z,51.45
2022-11-29T01:30:18.171Z,49.90
2022-11-29T01:32:47.263Z,51.10
2022-11-29T01:35:16.504Z,51.10
2022-11-29T01:37:45.785Z,52.10
2022-11-29T01:40:18.696Z,50.17
2022-11-29T01:42:48.841Z,50.15
2022-11-29T01:45:24.674Z,43.95
2022-11-29T01:48:01.762Z,48.05
2022-11-29T01:50:30.658Z,46.95
2022-11-29T01:53:01.054Z,45.10
2022-11-29T01:55:29.574Z,46.95
2022-11-29T01:58:02.527Z,47.13
2022-11-29T02:00:31.067Z,47.53
2022-11-29T02:03:07.372Z,47.88
2022-11-29T02:08:05.799Z,45.65
2022-11-29T02:11:09.339Z,50.10
2022-11-29T02:13:53.013Z,47.10
2022-11-29T02:16:33.299Z,42.78
2022-11-29T02:19:15.268Z,42.92
2022-11-29T02:21:50.604Z,42.72
2022-11-29T02:28:06.120Z,41.92
2022-11-29T02:31:31.346Z,42.35
2022-11-29T02:34:31.268Z,42.97
2022-11-29T02:37:24.963Z,43.03
2022-11-29T02:40:29.684Z,43.90
2022-11-29T02:43:32.686Z,44.40
2022-11-29T02:46:22.486Z,40.65
2022-11-29T02:49:08.242Z,40.05
2022-11-29T02:54:24.775Z,38.05
2022-11-29T02:57:01.379Z,39.22
2022-11-29T02:59:44.357Z,41.63
2022-11-29T03:02:27.486Z,42.30
2022-11-29T03:05:09.948Z,40.72
2022-11-29T03:07:52.232Z,39.92
2022-11-29T03:10:36.171Z,42.40
2022-11-29T03:13:11.789Z,42.28
2022-11-29T03:15:52.939Z,38.25
2022-11-29T03:18:43.504Z,36.22
2022-11-29T03:21:32.559Z,36.72
2022-11-29T03:24:08.845Z,36.63
2022-11-29T03:26:43.510Z,37.08
2022-11-29T03:29:28.402Z,38.05
2022-11-29T03:32:05.797Z,37.20
2022-11-29T03:34:56.996Z,37.10
2022-11-29T03:37:39.686Z,40.50
2022-11-29T03:40:12.200Z,35.25
2022-11-29T03:42:52.375Z,34.92
2022-11-29T03:45:28.568Z,35.83
2022-11-29T03:48:04.889Z,38.60
2022-11-29T03:50:40.458Z,32.08
2022-11-29T03:53:22.841Z,36.67
2022-11-29T03:55:57.381Z,38.70
2022-11-29T03:58:44.468Z,38.07
2022-11-29T04:02:18.265Z,36.75
2022-11-29T04:05:30.887Z,36.42
2022-11-29T04:08:20.949Z,33.60
2022-11-29T04:11:27.087Z,29.73
2022-11-29T04:14:38.756Z,35.13
2022-11-29T04:17:49.189Z,38.78
2022-11-29T04:21:04.795Z,37.55
2022-11-29T04:24:38.806Z,35.80
2022-11-29T04:27:41.581Z,33.42
2022-11-29T04:30:21.320Z,33.17
2022-11-29T04:33:37.966Z,32.63
2022-11-29T04:36:45.941Z,31.92
2022-11-29T04:39:59.033Z,31.38
2022-11-29T04:42:57.877Z,28.00
2022-11-29T04:46:15.105Z,28.85
2022-11-29T04:49:19.599Z,28.30
2022-11-29T04:52:11.591Z,29.00
2022-11-29T04:54:50.244Z,28.40
2022-11-29T04:57:31.910Z,29.30
2022-11-29T05:00:10.667Z,27.60
2022-11-29T05:02:50.183Z,32.03
2022-11-29T05:05:31.241Z,30.25
2022-11-29T05:08:33.592Z,30.00
2022-11-29T05:11:16.127Z,29.52
2022-11-29T05:13:54.375Z,29.92
2022-11-29T05:16:46.809Z,28.80
2022-11-29T05:19:48.730Z,28.42
2022-11-29T05:22:35.686Z,29.52
2022-11-29T05:25:31.544Z,27.70
2022-11-29T05:28:10.354Z,25.77
2022-11-29T05:31:18.892Z,26.60
2022-11-29T05:34:35.271Z,28.77
2022-11-29T05:37:21.773Z,22.83
2022-11-29T05:40:12.669Z,24.52
2022-11-29T05:43:04.386Z,24.65
2022-11-29T05:45:44.897Z,23.55
2022-11-29T05:48:27.446Z,23.27
2022-11-29T05:51:12.861Z,20.00
2022-11-29T05:56:25.677Z,21.85
2022-11-29T05:59:02.125Z,24.23
2022-11-29T06:01:41.154Z,23.65
2022-11-29T06:04:19.969Z,22.52
2022-11-29T06:06:59.646Z,22.98
2022-11-29T06:09:34.560Z,21.58
2022-11-29T06:12:14.905Z,23.60
2022-11-29T06:15:39.396Z,22.38
2022-11-29T06:18:36.281Z,21.98
2022-11-29T06:21:22.390Z,22.23
2022-11-29T06:24:50.561Z,24.25
2022-11-29T06:27:44.533Z,23.90
2022-11-29T06:30:18.705Z,26.30
2022-11-29T06:33:04.321Z,21.92
2022-11-29T06:35:45.998Z,21.90
2022-11-29T06:38:22.457Z,22.33
2022-11-29T06:41:01.363Z,21.05
2022-11-29T06:43:33.973Z,22.30
2022-11-29T06:46:18.824Z,20.90
2022-11-29T06:48:57.813Z,20.63
2022-11-29T06:51:41.748Z,20.73
2022-11-29T06:54:34.065Z,21.60
2022-11-29T06:57:12.954Z,18.77
2022-11-29T07:00:01.540Z,21.23
2022-11-29T07:02:55.778Z,20.77
2022-11-29T07:05:28.347Z,21.33
2022-11-29T07:08:15.208Z,15.77
2022-11-29T07:10:51.299Z,15.60
2022-11-29T07:13:25.268Z,14.35
2022-11-29T07:16:03.063Z,15.80
2022-11-29T07:18:46.458Z,15.18
2022-11-29T07:21:25.454Z,16.27
2022-11-29T07:24:04.799Z,17.42
2022-11-29T07:26:52.935Z,15.57
2022-11-29T07:29:39.398Z,17.10
2022-11-29T07:32:18.228Z,18.35
2022-11-29T07:35:01.117Z,19.50
2022-11-29T07:37:39.641Z,18.27
2022-11-29T07:40:18.054Z,17.05
2022-11-29T07:43:16.580Z,16.67
2022-11-29T07:45:48.679Z,17.23
2022-11-29T07:48:19.023Z,18.27
2022-11-29T07:50:48.315Z,17.23
2022-11-29T07:53:22.358Z,18.75
2022-11-29T07:55:54.688Z,20.70
2022-11-29T07:58:23.179Z,19.48
2022-11-29T08:00:53.708Z,21.17
2022-11-29T08:03:23.237Z,20.60
2022-11-29T08:05:56.092Z,22.65
2022-11-29T08:08:24.728Z,22.17
2022-11-29T08:10:53.776Z,23.05
2022-11-29T08:13:23.111Z,26.00
2022-11-29T08:15:54.565Z,24.08
2022-11-29T08:18:24.699Z,22.85
2022-11-29T08:20:54.045Z,22.30
2022-11-29T08:23:22.925Z,21.15
2022-11-29T08:25:51.704Z,21.65
2022-11-29T08:28:20.930Z,21.27
2022-11-29T08:30:52.623Z,20.70
2022-11-29T08:33:22.733Z,21.88
2022-11-29T08:35:52.284Z,22.20
2022-11-29T08:38:23.928Z,24.77
2022-11-29T08:40:52.641Z,23.80
2022-11-29T08:43:21.809Z,23.45
2022-11-29T08:45:55.240Z,22.17
2022-11-29T08:48:24.757Z,19.92
2022-11-29T08:50:56.339Z,20.77
2022-11-29T08:53:41.753Z,21.08
2022-11-29T08:56:59.718Z,20.02
2022-11-29T08:59:02.000Z,20.15
2022-11-29T09:01:32.583Z,18.13
2022-11-29T09:04:03.029Z,19.95
2022-11-29T09:06:34.353Z,18.10
2022-11-29T09:09:04.336Z,18.45
2022-11-29T09:11:36.581Z,18.17
2022-11-29T09:14:09.442Z,17.42
2022-11-29T09:16:40.764Z,17.98
2022-11-29T09:19:10.002Z,19.10
2022-11-29T09:21:38.743Z,18.95
2022-11-29T09:24:09.497Z,18.35
2022-11-29T09:26:40.780Z,19.20
2022-11-29T09:29:11.324Z,18.52
2022-11-29T09:31:44.895Z,18.48
2022-11-29T09:34:14.575Z,17.70
2022-11-29T09:36:44.147Z,17.50
2022-11-29T09:39:14.237Z,16.88
2022-11-29T09:42:22.489Z,16.48
2022-11-29T09:45:06.578Z,17.25
2022-11-29T09:48:24.175Z,15.90
2022-11-29T09:50:59.149Z,15.73
2022-11-29T09:53:47.875Z,17.75
2022-11-29T09:56:26.091Z,14.80
2022-11-29T09:59:01.109Z,15.82
2022-11-29T10:01:38.239Z,16.60
2022-11-29T10:04:16.398Z,17.83
2022-11-29T10:06:57.263Z,18.20
2022-11-29T10:09:33.989Z,17.30
2022-11-29T10:12:16.104Z,17.63
2022-11-29T10:14:52.816Z,17.67
2022-11-29T10:17:38.522Z,16.13
2022-11-29T10:22:53.875Z,15.95
2022-11-29T10:25:27.820Z,15.23
2022-11-29T10:27:56.847Z,15.40
2022-11-29T10:30:25.887Z,14.95
2022-11-29T10:33:01.044Z,14.18
2022-11-29T10:35:37.345Z,14.77
2022-11-29T10:41:07.405Z,14.23
2022-11-29T10:43:38.144Z,13.98
2022-11-29T10:46:16.377Z,14.63
2022-11-29T10:48:46.986Z,15.30
2022-11-29T10:51:21.731Z,14.82
2022-11-29T10:53:54.629Z,14.55
2022-11-29T10:56:29.706Z,13.85
2022-11-29T10:59:05.809Z,14.98
2022-11-29T11:01:40.555Z,14.73
2022-11-29T11:04:16.103Z,14.43
2022-11-29T11:06:51.345Z,15.82
2022-11-29T11:09:26.264Z,15.13
2022-11-29T11:11:59.217Z,16.20
2022-11-29T11:14:31.955Z,15.85
2022-11-29T11:17:22.518Z,15.60
2022-11-29T11:19:58.874Z,15.27
2022-11-29T11:22:32.780Z,16.40
2022-11-29T11:25:06.184Z,16.63
2022-11-29T11:27:42.418Z,16.33
2022-11-29T11:30:23.821Z,17.55
2022-11-29T11:33:19.420Z,17.45
2022-11-29T11:36:07.792Z,16.95
2022-11-29T11:38:41.734Z,17.20
2022-11-29T11:41:44.737Z,17.35
2022-11-29T11:44:46.892Z,17.02
2022-11-29T11:47:20.190Z,15.65
2022-11-29T11:49:55.465Z,15.27
2022-11-29T11:55:02.795Z,16.33
2022-11-29T11:57:32.992Z,15.23
2022-11-29T12:00:06.988Z,15.98
2022-11-29T12:02:41.374Z,15.80
2022-11-29T12:05:18.232Z,15.55
2022-11-29T12:08:10.584Z,15.63
2022-11-29T12:10:41.887Z,15.52
2022-11-29T12:13:21.161Z,15.30
2022-11-29T12:15:55.402Z,15.38
2022-11-29T12:18:37.911Z,15.63
2022-11-29T12:21:14.524Z,16.30
2022-11-29T12:23:52.927Z,15.25
2022-11-29T12:26:55.776Z,16.77
2022-11-29T12:29:22.848Z,16.02
2022-11-29T12:32:09.898Z,15.95
2022-11-29T12:34:57.651Z,16.65
2022-11-29T12:37:33.553Z,17.08
2022-11-29T12:40:15.142Z,16.70
2022-11-29T12:42:56.262Z,15.48
2022-11-29T12:45:46.617Z,16.80
2022-11-29T12:48:34.850Z,16.55
2022-11-29T12:51:12.586Z,14.02
2022-11-29T12:54:03.186Z,14.48
2022-11-29T12:56:40.481Z,14.10
2022-11-29T12:59:33.824Z,13.73
2022-11-29T13:02:28.575Z,13.35
2022-11-29T13:05:05.095Z,12.48
2022-11-29T13:07:45.578Z,12.82
2022-11-29T13:10:29.365Z,12.98
2022-11-29T13:13:09.736Z,12.48
2022-11-29T13:15:52.316Z,13.15
2022-11-29T13:18:29.377Z,12.00
2022-11-29T13:21:06.605Z,12.55
2022-11-29T13:24:07.881Z,12.60
2022-11-29T13:26:36.179Z,14.07
2022-11-29T13:29:06.299Z,13.85
2022-11-29T13:31:40.353Z,15.60
2022-11-29T13:34:15.202Z,14.68
2022-11-29T13:37:01.382Z,14.70
2022-11-29T13:39:43.483Z,14.40
2022-11-29T13:42:20.657Z,15.57
2022-11-29T13:45:04.602Z,16.73
2022-11-29T13:47:48.889Z,15.10
2022-11-29T13:50:43.766Z,16.08
2022-11-29T13:53:22.853Z,16.88
2022-11-29T13:56:01.723Z,17.58
2022-11-29T13:58:41.654Z,17.05
2022-11-29T14:01:13.057Z,17.67
2022-11-29T14:03:44.993Z,20.10
2022-11-29T14:06:21.597Z,19.92
2022-11-29T14:09:25.461Z,19.65
2022-11-29T14:12:04.296Z,19.40
2022-11-29T14:14:42.648Z,20.48
2022-11-29T14:17:58.381Z,18.50
2022-11-29T14:20:55.950Z,18.83
2022-11-29T14:23:38.226Z,17.50
2022-11-29T14:26:30.623Z,16.08
2022-11-29T14:29:01.321Z,16.40
2022-11-29T14:31:57.828Z,15.43
2022-11-29T14:34:47.546Z,14.45
2022-11-29T14:37:37.319Z,14.98
2022-11-29T14:40:30.280Z,14.88
2022-11-29T14:43:01.969Z,13.45
2022-11-29T14:45:34.177Z,13.90
2022-11-29T14:48:03.465Z,14.05
2022-11-29T14:50:39.238Z,11.68
2022-11-29T14:53:31.348Z,12.65
2022-11-29T14:56:39.496Z,11.05
2022-11-29T14:59:49.254Z,9.65
2022-11-29T15:02:34.179Z,9.73
2022-11-29T15:05:19.301Z,8.25
2022-11-29T15:07:59.720Z,8.17
2022-11-29T15:10:37.289Z,7.80
2022-11-29T15:13:10.018Z,8.55
2022-11-29T15:16:11.998Z,8.20
2022-11-29T15:19:28.478Z,9.00
2022-11-29T15:22:10.506Z,9.18
2022-11-29T15:24:58.388Z,10.07
2022-11-29T15:27:29.347Z,8.88
2022-11-29T15:29:59.930Z,8.25
2022-11-29T15:32:33.348Z,8.60
2022-11-29T15:35:02.756Z,9.02
2022-11-29T15:37:51.105Z,8.75
2022-11-29T15:40:23.431Z,8.07
2022-11-29T15:43:02.344Z,7.95
2022-11-29T15:45:35.421Z,9.18
2022-11-29T15:48:20.228Z,8.40
2022-11-29T15:51:04.482Z,7.88
2022-11-29T15:53:41.251Z,7.72
2022-11-29T15:56:16.808Z,9.45
2022-11-29T15:58:49.551Z,8.65
2022-11-29T16:01:23.603Z,8.63
2022-11-29T16:03:59.304Z,6.95
2022-11-29T16:06:36.242Z,6.18
2022-11-29T16:09:08.706Z,6.28
2022-11-29T16:11:41.274Z,5.68
2022-11-29T16:14:26.599Z,6.70
2022-11-29T16:17:00.825Z,4.93
2022-11-29T16:19:35.405Z,4.72
2022-11-29T16:22:18.510Z,5.10
2022-11-29T16:25:05.248Z,5.00
2022-11-29T16:27:37.285Z,4.93
2022-11-29T16:30:22.410Z,4.38
2022-11-29T16:32:57.046Z,4.93
2022-11-29T16:35:31.115Z,5.05
2022-11-29T16:38:01.229Z,4.93
2022-11-29T16:40:35.833Z,6.68
2022-11-29T16:43:26.322Z,5.60
2022-11-29T16:46:39.160Z,11.00
2022-11-29T16:49:35.998Z,7.53
2022-11-29T16:52:25.881Z,6.93
2022-11-29T16:54:56.202Z,6.18
2022-11-29T16:57:26.094Z,6.88
2022-11-29T16:59:56.367Z,6.72
2022-11-29T17:02:31.405Z,9.70
2022-11-29T17:05:00.113Z,10.45
2022-11-29T17:07:31.512Z,10.18
2022-11-29T17:10:01.424Z,10.40
2022-11-29T17:12:31.353Z,9.18
2022-11-29T17:15:00.378Z,16.27
2022-11-29T17:17:32.339Z,11.73
2022-11-29T17:20:04.177Z,9.77
2022-11-29T17:22:36.328Z,10.35
2022-11-29T17:25:07.700Z,11.10
2022-11-29T17:27:40.528Z,9.82
2022-11-29T17:30:12.126Z,9.90
2022-11-29T17:32:43.014Z,10.05
2022-11-29T17:35:13.483Z,8.38
2022-11-29T17:37:44.607Z,8.90
2022-11-29T17:40:16.798Z,9.00
2022-11-29T17:42:45.889Z,8.10
2022-11-29T17:45:15.655Z,9.68
2022-11-29T17:47:46.363Z,7.60
2022-11-29T17:50:17.502Z,8.43
2022-11-29T17:52:47.139Z,9.27
2022-11-29T17:55:20.476Z,7.38
2022-11-29T17:57:52.207Z,8.88
2022-11-29T18:00:23.554Z,7.57
2022-11-29T18:03:00.640Z,7.18
2022-11-29T18:05:34.712Z,8.02
2022-11-29T18:08:05.873Z,6.72
2022-11-29T18:10:35.918Z,7.57
2022-11-29T18:13:04.743Z,7.32
2022-11-29T18:15:35.585Z,7.40
2022-11-29T18:18:11.388Z,7.18
2022-11-29T18:20:39.838Z,7.45
2022-11-29T18:23:09.008Z,7.65
2022-11-29T18:25:40.240Z,7.32
2022-11-29T18:28:12.962Z,7.85
2022-11-29T18:30:42.622Z,20.45
2022-11-29T18:33:13.099Z,8.60
2022-11-29T18:35:41.648Z,7.45
2022-11-29T18:38:15.915Z,8.40
2022-11-29T18:40:48.062Z,9.40
2022-11-29T18:43:18.918Z,8.90
2022-11-29T18:45:47.838Z,10.27
2022-11-29T18:48:18.338Z,9.27
2022-11-29T18:50:50.064Z,9.27
2022-11-29T18:53:19.499Z,9.05
2022-11-29T18:56:06.305Z,8.32
2022-11-29T18:58:45.541Z,8.73
2022-11-29T19:01:23.659Z,8.32
2022-11-29T19:03:57.655Z,9.30
2022-11-29T19:06:28.602Z,8.90
2022-11-29T19:09:01.905Z,10.27
2022-11-29T19:11:35.821Z,10.30
2022-11-29T19:14:11.825Z,10.10
2022-11-29T19:16:45.017Z,9.18
2022-11-29T19:19:15.722Z,8.70
2022-11-29T19:21:44.793Z,8.35
2022-11-29T19:24:24.497Z,8.68
2022-11-29T19:26:58.528Z,7.85
2022-11-29T19:29:36.678Z,8.23
2022-11-29T19:32:14.928Z,8.15
2022-11-29T19:34:49.154Z,7.07
2022-11-29T19:37:23.307Z,6.63
2022-11-29T19:39:54.248Z,7.15
2022-11-29T19:42:28.010Z,7.32
2022-11-29T19:45:16.852Z,6.97
2022-11-29T19:47:54.601Z,7.45
2022-11-29T19:50:31.351Z,7.50
2022-11-29T19:53:07.005Z,6.90
2022-11-29T19:55:51.684Z,7.43
2022-11-29T19:58:26.167Z,12.93
2022-11-29T20:00:59.891Z,24.58
2022-11-29T20:03:39.068Z,17.80
2022-11-29T20:06:17.322Z,12.95
2022-11-29T20:08:53.647Z,10.10
2022-11-29T20:11:26.726Z,10.20
2022-11-29T20:14:05.137Z,12.90
2022-11-29T20:19:30.436Z,15.02
2022-11-29T20:22:04.745Z,12.60
2022-11-29T20:24:42.615Z,11.70
2022-11-29T20:27:16.606Z,12.82
2022-11-29T20:29:49.823Z,13.48
2022-11-29T20:33:27.120Z,12.55
2022-11-29T20:36:18.056Z,13.15
2022-11-29T20:39:01.875Z,15.00
2022-11-29T20:41:51.363Z,17.42
2022-11-29T20:44:38.152Z,17.90
2022-11-29T20:47:30.044Z,13.75
2022-11-29T20:50:04.255Z,12.82
2022-11-29T20:52:53.284Z,10.90
2022-11-29T20:55:34.757Z,10.27
2022-11-29T20:58:13.732Z,8.10
2022-11-29T21:00:48.651Z,12.70
2022-11-29T21:03:23.959Z,9.15
2022-11-29T21:06:04.269Z,9.00
2022-11-29T21:08:41.426Z,10.15
2022-11-29T21:11:17.034Z,9.73
2022-11-29T21:13:54.005Z,10.55
2022-11-29T21:16:35.401Z,10.82
2022-11-29T21:19:10.073Z,11.60
2022-11-29T21:21:59.272Z,11.93
2022-11-29T21:24:51.670Z,12.15
2022-11-29T21:27:33.698Z,12.50
2022-11-29T21:30:12.158Z,12.82
2022-11-29T21:32:55.553Z,14.07
2022-11-29T21:35:26.961Z,13.45
2022-11-29T21:38:01.005Z,13.07
2022-11-29T21:40:32.226Z,13.93
2022-11-29T21:43:02.982Z,13.45
2022-11-29T21:45:32.376Z,13.93
2022-11-29T21:48:02.684Z,13.98
2022-11-29T21:50:32.725Z,15.23
2022-11-29T21:53:05.995Z,16.08
2022-11-29T21:55:35.393Z,16.27
2022-11-29T21:58:05.301Z,15.20
2022-11-29T22:00:37.429Z,15.88
2022-11-29T22:03:06.856Z,14.68
2022-11-29T22:05:36.079Z,15.98
2022-11-29T22:08:06.840Z,16.48
2022-11-29T22:10:37.691Z,16.73
2022-11-29T22:13:08.895Z,16.05
2022-11-29T22:15:38.194Z,16.13
2022-11-29T22:18:10.580Z,16.85
2022-11-29T22:20:39.946Z,16.00
2022-11-29T22:23:11.496Z,18.27
2022-11-29T22:25:40.223Z,21.33
2022-11-29T22:28:10.404Z,18.60
2022-11-29T22:30:39.098Z,18.73
2022-11-29T22:33:13.172Z,17.67
2022-11-29T22:35:44.573Z,16.43
2022-11-29T22:38:14.165Z,19.05
2022-11-29T22:40:43.985Z,19.70
2022-11-29T22:43:13.788Z,19.10
2022-11-29T22:45:43.002Z,19.50
2022-11-29T22:48:11.895Z,20.33
2022-11-29T22:50:41.987Z,19.75
2022-11-29T22:53:11.745Z,19.58
2022-11-29T22:55:41.871Z,21.45
2022-11-29T22:58:11.467Z,21.35
2022-11-29T23:00:46.514Z,19.65
2022-11-29T23:03:17.487Z,19.00
2022-11-29T23:05:46.210Z,21.45
2022-11-29T23:08:14.893Z,23.10
2022-11-29T23:10:44.285Z,22.38
2022-11-29T23:13:13.084Z,21.27
2022-11-29T23:15:44.927Z,22.25
2022-11-29T23:18:13.759Z,21.58
2022-11-29T23:20:42.639Z,20.92
2022-11-29T23:25:54.977Z,21.27
2022-11-29T23:28:24.736Z,20.00
2022-11-29T23:30:55.051Z,20.65
2022-11-29T23:33:25.126Z,20.90
2022-11-29T23:36:02.493Z,19.15
2022-11-29T23:38:31.664Z,20.52
2022-11-29T23:41:00.664Z,22.50
2022-11-29T23:43:31.635Z,21.42
2022-11-29T23:46:10.684Z,20.92
2022-11-29T23:48:40.674Z,21.63
2022-11-29T23:51:12.899Z,21.30
2022-11-29T23:53:43.056Z,21.55
2022-11-29T23:56:16.360Z,21.67
2022-11-29T23:58:46.261Z,21.13
